sensor_id;sensor_type;location;lat;lon;timestamp;pressure;altitude;pressure_sealevel;temperature;humidity
5146;BME280;2591;48.144;15.152;2024-03-25T00:00:26;75890.66;;;-144.65;100.00
5146;BME280;2591;48.144;15.152;2024-03-25T00:03:29;75890.66;;;-144.65;100.00
5146;BME280;2591;48.144;15.152;2024-03-25T00:06:33;75892.69;;;-144.65;100.00
5146;BME280;2591;48.144;15.152;2024-03-25T00:09:37;75890.66;;;-144.65;100.00
5146;BME280;2591;48.144;15.152;2024-03-25T00:12:41;75898.81;;;-144.65;100.00
5146;BME280;2591;48.144;15.152;2024-03-25T00:15:46;75890.66;;;-144.65;100.00
5146;BME280;2591;48.144;15.152;2024-03-25T00:18:50;75886.56;;;-144.65;100.00
5146;BME280;2591;48.144;15.152;2024-03-25T00:21:54;75886.56;;;-144.65;100.00
5146;BME280;2591;48.144;15.152;2024-03-25T00:24:59;75890.66;;;-144.65;100.00
5146;BME280;2591;48.144;15.152;2024-03-25T00:28:02;75886.56;;;-144.65;100.00
5146;BME280;2591;48.144;15.152;2024-03-25T00:31:08;75890.66;;;-144.65;100.00
5146;BME280;2591;48.144;15.152;2024-03-25T00:34:13;75892.69;;;-144.65;100.00
5146;BME280;2591;48.144;15.152;2024-03-25T00:37:16;75898.81;;;-144.65;100.00
5146;BME280;2591;48.144;15.152;2024-03-25T00:40:20;75894.75;;;-144.65;100.00
5146;BME280;2591;48.144;15.152;2024-03-25T00:43:24;75904.94;;;-144.65;100.00
5146;BME280;2591;48.144;15.152;2024-03-25T00:46:30;75902.88;;;-144.65;100.00
5146;BME280;2591;48.144;15.152;2024-03-25T00:49:33;75902.88;;;-144.65;100.00
5146;BME280;2591;48.144;15.152;2024-03-25T00:52:38;75902.88;;;-144.65;100.00
5146;BME280;2591;48.144;15.152;2024-03-25T00:55:41;75906.97;;;-144.65;100.00
5146;BME280;2591;48.144;15.152;2024-03-25T00:58:46;75898.81;;;-144.65;100.00
5146;BME280;2591;48.144;15.152;2024-03-25T01:01:50;75896.78;;;-144.65;100.00
5146;BME280;2591;48.144;15.152;2024-03-25T01:04:55;75892.69;;;-144.65;100.00
5146;BME280;2591;48.144;15.152;2024-03-25T01:07:59;75896.78;;;-144.65;100.00
5146;BME280;2591;48.144;15.152;2024-03-25T01:11:04;75894.75;;;-144.65;100.00
5146;BME280;2591;48.144;15.152;2024-03-25T01:14:07;75890.66;;;-144.65;100.00
5146;BME280;2591;48.144;15.152;2024-03-25T01:17:13;75902.88;;;-144.65;100.00
5146;BME280;2591;48.144;15.152;2024-03-25T01:20:16;75888.63;;;-144.65;100.00
5146;BME280;2591;48.144;15.152;2024-03-25T01:23:21;75890.66;;;-144.65;100.00
5146;BME280;2591;48.144;15.152;2024-03-25T01:26:25;75888.63;;;-144.65;100.00
5146;BME280;2591;48.144;15.152;2024-03-25T01:29:29;75886.56;;;-144.65;100.00
5146;BME280;2591;48.144;15.152;2024-03-25T01:32:35;75890.66;;;-144.65;100.00
5146;BME280;2591;48.144;15.152;2024-03-25T01:35:38;75882.50;;;-144.65;100.00
5146;BME280;2591;48.144;15.152;2024-03-25T01:38:43;75870.28;;;-144.65;100.00
5146;BME280;2591;48.144;15.152;2024-03-25T01:41:46;75878.44;;;-144.65;100.00
5146;BME280;2591;48.144;15.152;2024-03-25T01:44:51;75876.38;;;-144.65;100.00
5146;BME280;2591;48.144;15.152;2024-03-25T01:47:57;75870.28;;;-144.65;100.00
5146;BME280;2591;48.144;15.152;2024-03-25T01:51:02;75864.16;;;-144.65;100.00
5146;BME280;2591;48.144;15.152;2024-03-25T01:54:06;75858.03;;;-144.65;100.00
5146;BME280;2591;48.144;15.152;2024-03-25T01:57:11;75862.13;;;-144.65;100.00
5146;BME280;2591;48.144;15.152;2024-03-25T02:00:15;75858.03;;;-144.65;100.00
5146;BME280;2591;48.144;15.152;2024-03-25T02:03:23;75845.81;;;-144.65;100.00
5146;BME280;2591;48.144;15.152;2024-03-25T02:06:27;75849.88;;;-144.65;100.00
5146;BME280;2591;48.144;15.152;2024-03-25T02:09:31;75849.88;;;-144.65;100.00
5146;BME280;2591;48.144;15.152;2024-03-25T02:12:36;75847.84;;;-144.65;100.00
5146;BME280;2591;48.144;15.152;2024-03-25T02:15:41;75845.81;;;-144.65;100.00
5146;BME280;2591;48.144;15.152;2024-03-25T02:18:45;75849.88;;;-144.65;100.00
5146;BME280;2591;48.144;15.152;2024-03-25T02:21:50;75845.81;;;-144.65;100.00
5146;BME280;2591;48.144;15.152;2024-03-25T02:24:54;75853.97;;;-144.65;100.00
5146;BME280;2591;48.144;15.152;2024-03-25T02:28:02;75849.88;;;-144.65;100.00
5146;BME280;2591;48.144;15.152;2024-03-25T02:31:05;75845.81;;;-144.65;100.00
5146;BME280;2591;48.144;15.152;2024-03-25T02:34:09;75853.97;;;-144.65;100.00
5146;BME280;2591;48.144;15.152;2024-03-25T02:37:13;75858.03;;;-144.65;100.00
5146;BME280;2591;48.144;15.152;2024-03-25T02:40:18;75853.97;;;-144.65;100.00
5146;BME280;2591;48.144;15.152;2024-03-25T02:43:23;75862.13;;;-144.65;100.00
5146;BME280;2591;48.144;15.152;2024-03-25T02:46:29;75853.97;;;-144.65;100.00
5146;BME280;2591;48.144;15.152;2024-03-25T02:49:32;75853.97;;;-144.65;100.00
5146;BME280;2591;48.144;15.152;2024-03-25T02:52:37;75866.19;;;-144.65;100.00
5146;BME280;2591;48.144;15.152;2024-03-25T02:55:40;75866.19;;;-144.65;100.00
5146;BME280;2591;48.144;15.152;2024-03-25T02:58:46;75872.31;;;-144.65;100.00
5146;BME280;2591;48.144;15.152;2024-03-25T03:01:50;75866.19;;;-144.65;100.00
5146;BME280;2591;48.144;15.152;2024-03-25T03:04:54;75862.13;;;-144.65;100.00
5146;BME280;2591;48.144;15.152;2024-03-25T03:07:58;75864.16;;;-144.65;100.00
5146;BME280;2591;48.144;15.152;2024-03-25T03:11:01;75860.06;;;-144.65;100.00
5146;BME280;2591;48.144;15.152;2024-03-25T03:14:07;75862.13;;;-144.65;100.00
5146;BME280;2591;48.144;15.152;2024-03-25T03:17:12;75868.22;;;-144.65;100.00
5146;BME280;2591;48.144;15.152;2024-03-25T03:20:15;75870.28;;;-144.65;100.00
5146;BME280;2591;48.144;15.152;2024-03-25T03:23:19;75862.13;;;-144.65;100.00
5146;BME280;2591;48.144;15.152;2024-03-25T03:26:22;75866.19;;;-144.65;100.00
5146;BME280;2591;48.144;15.152;2024-03-25T03:29:30;75860.06;;;-144.65;100.00
5146;BME280;2591;48.144;15.152;2024-03-25T03:32:34;75858.03;;;-144.65;100.00
5146;BME280;2591;48.144;15.152;2024-03-25T03:35:38;75866.19;;;-144.65;100.00
5146;BME280;2591;48.144;15.152;2024-03-25T03:38:43;75864.16;;;-144.65;100.00
5146;BME280;2591;48.144;15.152;2024-03-25T03:41:46;75860.06;;;-144.65;100.00
5146;BME280;2591;48.144;15.152;2024-03-25T03:44:52;75860.06;;;-144.65;100.00
5146;BME280;2591;48.144;15.152;2024-03-25T03:47:55;75862.13;;;-144.65;100.00
5146;BME280;2591;48.144;15.152;2024-03-25T03:50:59;75849.88;;;-144.65;100.00
5146;BME280;2591;48.144;15.152;2024-03-25T03:54:03;75845.81;;;-144.65;100.00
5146;BME280;2591;48.144;15.152;2024-03-25T03:57:07;75847.84;;;-144.65;100.00
5146;BME280;2591;48.144;15.152;2024-03-25T04:00:13;75845.81;;;-144.65;100.00
5146;BME280;2591;48.144;15.152;2024-03-25T04:03:18;75841.72;;;-144.65;100.00
5146;BME280;2591;48.144;15.152;2024-03-25T04:06:22;75841.72;;;-144.65;100.00
5146;BME280;2591;48.144;15.152;2024-03-25T04:09:27;75829.50;;;-144.65;100.00
5146;BME280;2591;48.144;15.152;2024-03-25T04:12:32;75837.66;;;-144.65;100.00
5146;BME280;2591;48.144;15.152;2024-03-25T04:15:37;75845.81;;;-144.65;100.00
5146;BME280;2591;48.144;15.152;2024-03-25T04:18:41;75841.72;;;-144.65;100.00
5146;BME280;2591;48.144;15.152;2024-03-25T04:21:46;75843.75;;;-144.65;100.00
5146;BME280;2591;48.144;15.152;2024-03-25T04:24:49;75841.72;;;-144.65;100.00
5146;BME280;2591;48.144;15.152;2024-03-25T04:27:54;75829.50;;;-144.65;100.00
5146;BME280;2591;48.144;15.152;2024-03-25T04:30:59;75833.56;;;-144.65;100.00
5146;BME280;2591;48.144;15.152;2024-03-25T04:34:04;75825.41;;;-144.65;100.00
5146;BME280;2591;48.144;15.152;2024-03-25T04:37:09;75829.50;;;-144.65;100.00
5146;BME280;2591;48.144;15.152;2024-03-25T04:40:13;75831.53;;;-144.65;100.00
5146;BME280;2591;48.144;15.152;2024-03-25T04:43:17;75827.47;;;-144.65;100.00
5146;BME280;2591;48.144;15.152;2024-03-25T04:46:21;75833.56;;;-144.65;100.00
5146;BME280;2591;48.144;15.152;2024-03-25T04:49:25;75833.56;;;-144.65;100.00
5146;BME280;2591;48.144;15.152;2024-03-25T04:52:28;75839.69;;;-144.65;100.00
5146;BME280;2591;48.144;15.152;2024-03-25T04:55:32;75833.56;;;-144.65;100.00
5146;BME280;2591;48.144;15.152;2024-03-25T04:58:35;75841.72;;;-144.65;100.00
5146;BME280;2591;48.144;15.152;2024-03-25T05:01:40;75837.66;;;-144.65;100.00
5146;BME280;2591;48.144;15.152;2024-03-25T05:04:43;75849.88;;;-144.65;100.00
5146;BME280;2591;48.144;15.152;2024-03-25T05:07:47;75847.84;;;-144.65;100.00
5146;BME280;2591;48.144;15.152;2024-03-25T05:10:50;75845.81;;;-144.65;100.00
5146;BME280;2591;48.144;15.152;2024-03-25T05:13:53;75849.88;;;-144.65;100.00
5146;BME280;2591;48.144;15.152;2024-03-25T05:16:58;75837.66;;;-144.65;100.00
5146;BME280;2591;48.144;15.152;2024-03-25T05:20:01;75845.81;;;-144.65;100.00
5146;BME280;2591;48.144;15.152;2024-03-25T05:23:05;75845.81;;;-144.65;100.00
5146;BME280;2591;48.144;15.152;2024-03-25T05:26:08;75841.72;;;-144.65;100.00
5146;BME280;2591;48.144;15.152;2024-03-25T05:29:11;75839.69;;;-144.65;100.00
5146;BME280;2591;48.144;15.152;2024-03-25T05:32:16;75837.66;;;-144.65;100.00
5146;BME280;2591;48.144;15.152;2024-03-25T05:35:19;75837.66;;;-144.65;100.00
5146;BME280;2591;48.144;15.152;2024-03-25T05:38:22;75839.69;;;-144.65;100.00
5146;BME280;2591;48.144;15.152;2024-03-25T05:41:26;75845.81;;;-144.65;100.00
5146;BME280;2591;48.144;15.152;2024-03-25T05:44:29;75831.53;;;-144.65;100.00
5146;BME280;2591;48.144;15.152;2024-03-25T05:47:34;75837.66;;;-144.65;100.00
5146;BME280;2591;48.144;15.152;2024-03-25T05:50:37;75833.56;;;-144.65;100.00
5146;BME280;2591;48.144;15.152;2024-03-25T05:53:40;75829.50;;;-144.65;100.00
5146;BME280;2591;48.144;15.152;2024-03-25T05:56:44;75825.41;;;-144.65;100.00
5146;BME280;2591;48.144;15.152;2024-03-25T05:59:47;75821.34;;;-144.65;100.00
5146;BME280;2591;48.144;15.152;2024-03-25T06:02:52;75823.38;;;-144.65;100.00
5146;BME280;2591;48.144;15.152;2024-03-25T06:05:56;75813.19;;;-144.65;100.00
5146;BME280;2591;48.144;15.152;2024-03-25T06:08:59;75819.31;;;-144.65;100.00
5146;BME280;2591;48.144;15.152;2024-03-25T06:12:03;75815.22;;;-144.65;100.00
5146;BME280;2591;48.144;15.152;2024-03-25T06:15:07;75817.25;;;-144.65;100.00
5146;BME280;2591;48.144;15.152;2024-03-25T06:18:12;75817.25;;;-144.65;100.00
5146;BME280;2591;48.144;15.152;2024-03-25T06:21:16;75817.25;;;-144.65;100.00
5146;BME280;2591;48.144;15.152;2024-03-25T06:24:19;75815.22;;;-144.65;100.00
5146;BME280;2591;48.144;15.152;2024-03-25T06:27:22;75805.03;;;-144.65;100.00
5146;BME280;2591;48.144;15.152;2024-03-25T06:30:26;75796.88;;;-144.65;100.00
5146;BME280;2591;48.144;15.152;2024-03-25T06:33:49;75805.03;;;-144.65;100.00
5146;BME280;2591;48.144;15.152;2024-03-25T06:37:11;75796.88;;;-144.65;100.00
5146;BME280;2591;48.144;15.152;2024-03-25T06:40:14;75792.81;;;-144.65;100.00
5146;BME280;2591;48.144;15.152;2024-03-25T06:43:17;75774.47;;;-144.65;100.00
5146;BME280;2591;48.144;15.152;2024-03-25T06:46:21;75772.41;;;-144.65;100.00
5146;BME280;2591;48.144;15.152;2024-03-25T06:49:25;75776.50;;;-144.65;100.00
5146;BME280;2591;48.144;15.152;2024-03-25T06:52:28;75776.50;;;-144.65;100.00
5146;BME280;2591;48.144;15.152;2024-03-25T06:55:32;75776.50;;;-144.65;100.00
5146;BME280;2591;48.144;15.152;2024-03-25T06:58:36;75768.34;;;-144.65;100.00
5146;BME280;2591;48.144;15.152;2024-03-25T07:01:39;75752.03;;;-144.65;100.00
5146;BME280;2591;48.144;15.152;2024-03-25T07:04:44;75750.00;;;-144.65;100.00
5146;BME280;2591;48.144;15.152;2024-03-25T07:07:47;75760.19;;;-144.65;100.00
5146;BME280;2591;48.144;15.152;2024-03-25T07:10:50;75770.38;;;-144.65;100.00
5146;BME280;2591;48.144;15.152;2024-03-25T07:13:54;75758.16;;;-144.65;100.00
5146;BME280;2591;48.144;15.152;2024-03-25T07:16:57;75739.81;;;-144.65;100.00
5146;BME280;2591;48.144;15.152;2024-03-25T07:20:02;75707.19;;;-144.65;100.00
5146;BME280;2591;48.144;15.152;2024-03-25T07:23:06;75678.63;;;-144.65;100.00
5146;BME280;2591;48.144;15.152;2024-03-25T07:26:09;75662.34;;;-144.65;99.01
5146;BME280;2591;48.144;15.152;2024-03-25T07:29:12;75662.34;;;-144.65;98.74
5146;BME280;2591;48.144;15.152;2024-03-25T07:32:16;75670.50;;;-144.65;98.22
5146;BME280;2591;48.144;15.152;2024-03-25T07:35:21;75690.88;;;-144.65;95.84
5146;BME280;2591;48.144;15.152;2024-03-25T07:38:25;75707.19;;;-144.65;97.79
5146;BME280;2591;48.144;15.152;2024-03-25T07:41:28;75719.41;;;-144.65;100.00
5146;BME280;2591;48.144;15.152;2024-03-25T07:44:32;75743.88;;;-144.65;99.50
5146;BME280;2591;48.144;15.152;2024-03-25T07:47:35;75747.94;;;-144.65;98.80
5146;BME280;2591;48.144;15.152;2024-03-25T07:50:40;75754.06;;;-144.65;99.95
5146;BME280;2591;48.144;15.152;2024-03-25T07:53:43;75739.81;;;-144.65;100.00
5146;BME280;2591;48.144;15.152;2024-03-25T07:56:47;75723.50;;;-144.65;99.46
5146;BME280;2591;48.144;15.152;2024-03-25T07:59:51;75711.25;;;-144.65;99.71
5146;BME280;2591;48.144;15.152;2024-03-25T08:02:55;75692.91;;;-144.65;97.20
5146;BME280;2591;48.144;15.152;2024-03-25T08:06:00;75666.41;;;-144.65;98.47
5146;BME280;2591;48.144;15.152;2024-03-25T08:09:04;75654.19;;;-144.65;93.94
5146;BME280;2591;48.144;15.152;2024-03-25T08:12:08;75650.09;;;-144.65;93.99
5146;BME280;2591;48.144;15.152;2024-03-25T08:15:12;75660.28;;;-144.65;90.85
5146;BME280;2591;48.144;15.152;2024-03-25T08:18:16;75617.50;;;-144.65;92.78
5146;BME280;2591;48.144;15.152;2024-03-25T08:21:21;75580.78;;;-144.65;90.27
5146;BME280;2591;48.144;15.152;2024-03-25T08:24:25;75588.94;;;-144.65;88.64
5146;BME280;2591;48.144;15.152;2024-03-25T08:27:29;75493.13;;;-144.65;89.27
5146;BME280;2591;48.144;15.152;2024-03-25T08:30:33;75429.94;;;-144.65;84.00
5146;BME280;2591;48.144;15.152;2024-03-25T08:33:37;75401.41;;;-144.65;79.71
5146;BME280;2591;48.144;15.152;2024-03-25T08:36:43;75381.03;;;-144.65;76.23
5146;BME280;2591;48.144;15.152;2024-03-25T08:39:47;75279.09;;;-144.65;74.73
5146;BME280;2591;48.144;15.152;2024-03-25T08:42:51;75258.72;;;-144.65;70.14
5146;BME280;2591;48.144;15.152;2024-03-25T08:45:54;75413.66;;;-144.65;71.44
5146;BME280;2591;48.144;15.152;2024-03-25T08:48:57;75580.78;;;-144.65;76.56
5146;BME280;2591;48.144;15.152;2024-03-25T08:52:03;75639.91;;;-144.65;80.49
5146;BME280;2591;48.144;15.152;2024-03-25T08:55:06;75650.09;;;-144.65;84.64
5146;BME280;2591;48.144;15.152;2024-03-25T08:58:11;75629.72;;;-144.65;85.60
5146;BME280;2591;48.144;15.152;2024-03-25T09:01:14;75613.41;;;-144.65;83.32
5146;BME280;2591;48.144;15.152;2024-03-25T09:04:18;75595.06;;;-144.65;84.71
5146;BME280;2591;48.144;15.152;2024-03-25T09:07:24;75586.91;;;-144.65;84.68
5146;BME280;2591;48.144;15.152;2024-03-25T09:10:29;75641.94;;;-144.65;85.41
5146;BME280;2591;48.144;15.152;2024-03-25T09:13:51;75641.94;;;-144.65;89.29
5146;BME280;2591;48.144;15.152;2024-03-25T09:16:55;75509.44;;;-144.65;89.37
5146;BME280;2591;48.144;15.152;2024-03-25T09:19:59;75527.78;;;-144.65;86.99
5146;BME280;2591;48.144;15.152;2024-03-25T09:23:04;75540.03;;;-144.65;89.25
5146;BME280;2591;48.144;15.152;2024-03-25T09:26:08;75568.56;;;-144.65;90.46
5146;BME280;2591;48.144;15.152;2024-03-25T09:29:11;75588.94;;;-144.65;85.82
5146;BME280;2591;48.144;15.152;2024-03-25T09:32:15;75554.28;;;-144.65;83.71
5146;BME280;2591;48.144;15.152;2024-03-25T09:35:19;75460.53;;;-144.65;80.02
5146;BME280;2591;48.144;15.152;2024-03-25T09:38:24;75338.22;;;-144.65;76.82
5146;BME280;2591;48.144;15.152;2024-03-25T09:41:30;75415.69;;;-144.65;77.11
5146;BME280;2591;48.144;15.152;2024-03-25T09:44:34;75513.53;;;-144.65;76.10
5146;BME280;2591;48.144;15.152;2024-03-25T09:47:39;75517.59;;;-144.65;75.00
5146;BME280;2591;48.144;15.152;2024-03-25T09:50:43;75515.56;;;-144.65;77.22
5146;BME280;2591;48.144;15.152;2024-03-25T09:53:49;75540.03;;;-144.65;76.79
5146;BME280;2591;48.144;15.152;2024-03-25T09:56:52;75491.09;;;-144.65;77.40
5146;BME280;2591;48.144;15.152;2024-03-25T09:59:57;75517.59;;;-144.65;78.13
5146;BME280;2591;48.144;15.152;2024-03-25T10:03:00;75554.28;;;-144.65;77.15
5146;BME280;2591;48.144;15.152;2024-03-25T10:06:04;75572.63;;;-144.65;75.30
5146;BME280;2591;48.144;15.152;2024-03-25T10:09:09;75603.22;;;-144.65;75.64
5146;BME280;2591;48.144;15.152;2024-03-25T10:12:13;75621.56;;;-144.65;76.14
5146;BME280;2591;48.144;15.152;2024-03-25T10:15:16;75537.97;;;-144.65;75.42
5146;BME280;2591;48.144;15.152;2024-03-25T10:18:20;75427.91;;;-144.65;73.53
5146;BME280;2591;48.144;15.152;2024-03-25T10:21:24;75442.19;;;-144.65;74.83
5146;BME280;2591;48.144;15.152;2024-03-25T10:24:38;75472.75;;;-144.65;73.48
5146;BME280;2591;48.144;15.152;2024-03-25T10:27:53;75507.41;;;-144.65;75.75
5146;BME280;2591;48.144;15.152;2024-03-25T10:31:02;75429.94;;;-144.65;74.57
5146;BME280;2591;48.144;15.152;2024-03-25T10:34:06;75379.00;;;-144.65;74.10
5146;BME280;2591;48.144;15.152;2024-03-25T10:37:11;75307.66;;;-144.65;70.81
5146;BME280;2591;48.144;15.152;2024-03-25T10:40:16;75336.19;;;-144.65;70.36
5146;BME280;2591;48.144;15.152;2024-03-25T10:43:20;75397.34;;;-144.65;72.06
5146;BME280;2591;48.144;15.152;2024-03-25T10:46:24;75403.44;;;-144.65;73.10
5146;BME280;2591;48.144;15.152;2024-03-25T10:49:33;75411.59;;;-144.65;73.31
5146;BME280;2591;48.144;15.152;2024-03-25T10:52:38;75413.66;;;-144.65;74.54
5146;BME280;2591;48.144;15.152;2024-03-25T10:55:44;75409.56;;;-144.65;72.40
5146;BME280;2591;48.144;15.152;2024-03-25T10:58:50;75495.19;;;-144.65;74.26
5146;BME280;2591;48.144;15.152;2024-03-25T11:01:54;75491.09;;;-144.65;77.64
5146;BME280;2591;48.144;15.152;2024-03-25T11:04:59;75462.56;;;-144.65;79.33
5146;BME280;2591;48.144;15.152;2024-03-25T11:08:10;75470.72;;;-144.65;78.52
5146;BME280;2591;48.144;15.152;2024-03-25T11:11:15;75546.13;;;-144.65;80.23
5146;BME280;2591;48.144;15.152;2024-03-25T11:14:19;75542.06;;;-144.65;83.91
5146;BME280;2591;48.144;15.152;2024-03-25T11:17:23;75507.41;;;-144.65;82.33
5146;BME280;2591;48.144;15.152;2024-03-25T11:20:28;75474.78;;;-144.65;79.49
5146;BME280;2591;48.144;15.152;2024-03-25T11:23:36;75421.78;;;-144.65;78.01
5146;BME280;2591;48.144;15.152;2024-03-25T11:26:44;75401.41;;;-144.65;77.61
5146;BME280;2591;48.144;15.152;2024-03-25T11:29:48;75466.63;;;-144.65;78.30
5146;BME280;2591;48.144;15.152;2024-03-25T11:32:53;75464.59;;;-144.65;78.37
5146;BME280;2591;48.144;15.152;2024-03-25T11:35:57;75448.28;;;-144.65;78.97
5146;BME280;2591;48.144;15.152;2024-03-25T11:39:01;75397.34;;;-144.65;78.43
5146;BME280;2591;48.144;15.152;2024-03-25T11:42:08;75307.66;;;-144.65;77.36
5146;BME280;2591;48.144;15.152;2024-03-25T11:45:14;75254.66;;;-144.65;71.88
5146;BME280;2591;48.144;15.152;2024-03-25T11:48:19;75226.13;;;-144.65;72.51
5146;BME280;2591;48.144;15.152;2024-03-25T11:51:23;75209.81;;;-144.65;66.52
5146;BME280;2591;48.144;15.152;2024-03-25T11:54:27;75258.72;;;-144.65;67.50
5146;BME280;2591;48.144;15.152;2024-03-25T11:57:33;75258.72;;;-144.65;67.93
5146;BME280;2591;48.144;15.152;2024-03-25T12:00:43;75295.41;;;-144.65;67.87
5146;BME280;2591;48.144;15.152;2024-03-25T12:03:47;75297.47;;;-144.65;67.76
5146;BME280;2591;48.144;15.152;2024-03-25T12:06:54;75336.19;;;-144.65;65.69
5146;BME280;2591;48.144;15.152;2024-03-25T12:09:57;75326.00;;;-144.65;65.44
5146;BME280;2591;48.144;15.152;2024-03-25T12:13:21;75262.81;;;-144.65;65.32
5146;BME280;2591;48.144;15.152;2024-03-25T12:16:25;75238.34;;;-144.65;65.60
5146;BME280;2591;48.144;15.152;2024-03-25T12:19:29;75217.97;;;-144.65;63.30
5146;BME280;2591;48.144;15.152;2024-03-25T12:22:33;75173.13;;;-144.65;63.43
5146;BME280;2591;48.144;15.152;2024-03-25T12:25:38;75217.97;;;-144.65;65.09
5146;BME280;2591;48.144;15.152;2024-03-25T12:28:44;75197.56;;;-144.65;63.71
5146;BME280;2591;48.144;15.152;2024-03-25T12:31:54;75207.78;;;-144.65;63.60
5146;BME280;2591;48.144;15.152;2024-03-25T12:34:58;75260.75;;;-144.65;64.92
5146;BME280;2591;48.144;15.152;2024-03-25T12:38:02;75250.56;;;-144.65;67.32
5146;BME280;2591;48.144;15.152;2024-03-25T12:41:07;75226.13;;;-144.65;64.18
5146;BME280;2591;48.144;15.152;2024-03-25T12:44:13;75238.34;;;-144.65;65.58
5146;BME280;2591;48.144;15.152;2024-03-25T12:47:16;75203.69;;;-144.65;63.43
5146;BME280;2591;48.144;15.152;2024-03-25T12:50:20;75191.47;;;-144.65;64.00
5146;BME280;2591;48.144;15.152;2024-03-25T12:53:24;75150.69;;;-144.65;59.15
5146;BME280;2591;48.144;15.152;2024-03-25T12:56:28;75148.66;;;-144.65;60.13
5146;BME280;2591;48.144;15.152;2024-03-25T12:59:34;75134.41;;;-144.65;58.89
5146;BME280;2591;48.144;15.152;2024-03-25T13:02:37;75140.50;;;-144.65;62.34
5146;BME280;2591;48.144;15.152;2024-03-25T13:05:43;75054.91;;;-144.65;58.18
5146;BME280;2591;48.144;15.152;2024-03-25T13:08:47;74997.84;;;-144.65;55.42
5146;BME280;2591;48.144;15.152;2024-03-25T13:11:51;75046.75;;;-144.65;55.92
5146;BME280;2591;48.144;15.152;2024-03-25T13:14:56;75079.38;;;-144.65;56.61
5146;BME280;2591;48.144;15.152;2024-03-25T13:18:00;75065.09;;;-144.65;54.87
5146;BME280;2591;48.144;15.152;2024-03-25T13:21:03;75128.28;;;-144.65;57.13
5146;BME280;2591;48.144;15.152;2024-03-25T13:24:07;75091.59;;;-144.65;56.98
5146;BME280;2591;48.144;15.152;2024-03-25T13:27:12;75091.59;;;-144.65;53.95
5146;BME280;2591;48.144;15.152;2024-03-25T13:30:17;75111.97;;;-144.65;55.75
5146;BME280;2591;48.144;15.152;2024-03-25T13:33:21;75067.13;;;-144.65;55.59
5146;BME280;2591;48.144;15.152;2024-03-25T13:36:25;75016.19;;;-144.65;55.27
5146;BME280;2591;48.144;15.152;2024-03-25T13:39:29;74971.34;;;-144.65;53.64
5146;BME280;2591;48.144;15.152;2024-03-25T13:42:33;74989.69;;;-144.65;53.02
5146;BME280;2591;48.144;15.152;2024-03-25T13:45:46;74981.53;;;-144.65;53.67
5146;BME280;2591;48.144;15.152;2024-03-25T13:48:49;74891.84;;;-144.65;49.35
5146;BME280;2591;48.144;15.152;2024-03-25T13:51:56;74887.78;;;-144.65;48.73
5146;BME280;2591;48.144;15.152;2024-03-25T13:55:00;74928.53;;;-144.65;49.13
5146;BME280;2591;48.144;15.152;2024-03-25T13:58:04;74887.78;;;-144.65;48.21
5146;BME280;2591;48.144;15.152;2024-03-25T14:01:09;74883.69;;;-144.65;48.00
5146;BME280;2591;48.144;15.152;2024-03-25T14:04:13;74857.22;;;-144.65;46.40
5146;BME280;2591;48.144;15.152;2024-03-25T14:07:17;74932.63;;;-144.65;48.32
5146;BME280;2591;48.144;15.152;2024-03-25T14:10:22;74979.50;;;-144.65;50.85
5146;BME280;2591;48.144;15.152;2024-03-25T14:13:25;74942.81;;;-144.65;49.42
5146;BME280;2591;48.144;15.152;2024-03-25T14:16:30;74977.47;;;-144.65;50.96
5146;BME280;2591;48.144;15.152;2024-03-25T14:19:34;74908.16;;;-144.65;48.69
5146;BME280;2591;48.144;15.152;2024-03-25T14:22:38;74887.78;;;-144.65;47.64
5146;BME280;2591;48.144;15.152;2024-03-25T14:25:41;74877.59;;;-144.65;48.20
5146;BME280;2591;48.144;15.152;2024-03-25T14:28:45;74859.25;;;-144.65;46.27
5146;BME280;2591;48.144;15.152;2024-03-25T14:31:51;74908.16;;;-144.65;46.77
5146;BME280;2591;48.144;15.152;2024-03-25T14:34:55;74897.97;;;-144.65;47.01
5146;BME280;2591;48.144;15.152;2024-03-25T14:37:58;74879.63;;;-144.65;45.09
5146;BME280;2591;48.144;15.152;2024-03-25T14:41:03;74897.97;;;-144.65;46.27
5146;BME280;2591;48.144;15.152;2024-03-25T14:44:06;74883.69;;;-144.65;45.89
5146;BME280;2591;48.144;15.152;2024-03-25T14:47:11;74920.38;;;-144.65;48.26
5146;BME280;2591;48.144;15.152;2024-03-25T14:50:16;74875.56;;;-144.65;46.50
5146;BME280;2591;48.144;15.152;2024-03-25T14:53:19;74926.50;;;-144.65;47.46
5146;BME280;2591;48.144;15.152;2024-03-25T14:56:23;74908.16;;;-144.65;45.64
5146;BME280;2591;48.144;15.152;2024-03-25T14:59:27;74926.50;;;-144.65;46.53
5146;BME280;2591;48.144;15.152;2024-03-25T15:02:32;74891.84;;;-144.65;46.23
5146;BME280;2591;48.144;15.152;2024-03-25T15:05:35;74942.81;;;-144.65;47.75
5146;BME280;2591;48.144;15.152;2024-03-25T15:08:39;74924.47;;;-144.65;47.32
5146;BME280;2591;48.144;15.152;2024-03-25T15:11:43;74879.63;;;-144.65;45.69
5146;BME280;2591;48.144;15.152;2024-03-25T15:14:46;74912.22;;;-144.65;46.77
5146;BME280;2591;48.144;15.152;2024-03-25T15:17:51;74891.84;;;-144.65;45.66
5146;BME280;2591;48.144;15.152;2024-03-25T15:21:00;74932.63;;;-144.65;47.30
5146;BME280;2591;48.144;15.152;2024-03-25T15:24:03;74985.59;;;-144.65;48.63
5146;BME280;2591;48.144;15.152;2024-03-25T15:27:07;74883.69;;;-144.65;46.16
5146;BME280;2591;48.144;15.152;2024-03-25T15:30:11;74912.22;;;-144.65;46.56
5146;BME280;2591;48.144;15.152;2024-03-25T15:33:16;74969.31;;;-144.65;47.72
5146;BME280;2591;48.144;15.152;2024-03-25T15:36:20;74983.56;;;-144.65;47.90
5146;BME280;2591;48.144;15.152;2024-03-25T15:39:24;74948.91;;;-144.65;46.93
5146;BME280;2591;48.144;15.152;2024-03-25T15:42:28;74920.38;;;-144.65;46.40
5146;BME280;2591;48.144;15.152;2024-03-25T15:45:31;74965.22;;;-144.65;47.67
5146;BME280;2591;48.144;15.152;2024-03-25T15:48:36;74912.22;;;-144.65;46.32
5146;BME280;2591;48.144;15.152;2024-03-25T15:51:40;74940.78;;;-144.65;47.15
5146;BME280;2591;48.144;15.152;2024-03-25T15:54:44;74971.34;;;-144.65;47.72
5146;BME280;2591;48.144;15.152;2024-03-25T15:57:47;74873.50;;;-144.65;45.01